Time;durP1;ratioP1;P1;durP2;ratioP2;P2;SDS_P1;SDS_P2;PMS_P1;PMS_P2;Temp;Humidity;BMP_temperature;BMP_pressure;BME280_temperature;BME280_humidity;BME280_pressure;Samples;Min_cycle;Max_cycle;Signal;HPM_P1;HPM_P2
2022/09/05 00:02:02;;;;;;;3.30;3.00;;;;;;;;;;5059394;28;20048;-68
2022/09/05 00:04:52;;;;;;;2.60;2.40;;;;;;;;;;5060091;28;21051;-69
2022/09/05 00:07:52;;;;;;;3.22;2.80;;;;;;;;;;5059603;28;20832;-68
2022/09/05 00:10:34;;;;;;;3.35;2.75;;;;;;;;;;5061786;28;20515;-69
2022/09/05 00:13:00;;;;;;;;;;;;;;;;;;5064920;28;20106;-68
2022/09/05 00:15:56;;;;;;;3.83;2.90;;;;;;;;;;5063133;28;19916;-68
2022/09/05 00:19:01;;;;;;;3.75;2.90;;;;;;;;;;5061539;28;20048;-68
2022/09/05 00:22:09;;;;;;;3.60;2.70;;;;;;;;;;5063429;28;20088;-68
2022/09/05 00:24:56;;;;;;;3.17;2.90;;;;;;;;;;5021222;28;20837;-68
2022/09/05 00:27:45;;;;;;;4.68;2.85;;;;;;;;;;5063303;28;20480;-68
2022/09/05 00:30:15;;;;;;;5.75;3.00;;;;;;;;;;5046931;28;20155;-67
2022/09/05 00:33:05;;;;;;;3.38;2.60;;;;;;;;;;5064575;28;20044;-68
2022/09/05 00:35:52;;;;;;;3.22;2.80;;;;;;;;;;5063307;28;20048;-68
2022/09/05 00:38:22;;;;;;;4.68;2.97;;;;;;;;;;5064037;28;20484;-69
2022/09/05 00:40:55;;;;;;;3.65;3.33;;;;;;;;;;5063247;28;20040;-69
2022/09/05 00:43:29;;;;;;;3.70;3.17;;;;;;;;;;5063824;28;20076;-69
2022/09/05 00:46:29;;;;;;;4.18;3.80;;;;;;;;;;5060665;28;20048;-69
2022/09/05 00:49:27;;;;;;;4.63;4.10;;;;;;;;;;5063368;28;20044;-69
2022/09/05 00:52:05;;;;;;;6.18;4.47;;;;;;;;;;5062747;28;20512;-69
2022/09/05 00:54:37;;;;;;;6.25;4.60;;;;;;;;;;5063024;28;20062;-68
2022/09/05 00:57:44;;;;;;;4.93;3.92;;;;;;;;;;5063297;28;20154;-69
2022/09/05 01:00:22;;;;;;;6.80;3.90;;;;;;;;;;5036309;28;20063;-69
2022/09/05 01:03:11;;;;;;;4.00;3.58;;;;;;;;;;5033312;28;20212;-68
2022/09/05 01:06:08;;;;;;;4.30;3.72;;;;;;;;;;5041722;28;20134;-69
2022/09/05 01:08:48;;;;;;;5.82;3.88;;;;;;;;;;5043022;28;20033;-68
2022/09/05 01:11:34;;;;;;;3.55;3.25;;;;;;;;;;5024527;28;20183;-68
2022/09/05 01:14:14;;;;;;;3.80;3.42;;;;;;;;;;5060380;28;20044;-68
2022/09/05 01:16:52;;;;;;;3.67;3.17;;;;;;;;;;5062746;28;21158;-68
2022/09/05 01:19:21;;;;;;;4.07;3.45;;;;;;;;;;5057074;28;20408;-67
2022/09/05 01:22:26;;;;;;;3.70;3.05;;;;;;;;;;5060963;28;20040;-67
2022/09/05 01:25:06;;;;;;;5.75;3.65;;;;;;;;;;5062525;28;20051;-67
2022/09/05 01:27:46;;;;;;;3.50;3.20;;;;;;;;;;5062297;28;20044;-67
2022/09/05 01:30:24;;;;;;;5.88;3.33;;;;;;;;;;5062665;28;20053;-67
2022/09/05 01:33:28;;;;;;;6.95;3.35;;;;;;;;;;5062880;28;20048;-67
2022/09/05 01:35:59;;;;;;;5.13;3.17;;;;;;;;;;5052636;28;20060;-67
2022/09/05 01:38:38;;;;;;;7.17;3.20;;;;;;;;;;5062377;28;20051;-67
2022/09/05 01:41:20;;;;;;;6.80;3.17;;;;;;;;;;5062450;28;20504;-67
2022/09/05 01:44:06;;;;;;;3.92;3.28;;;;;;;;;;5062201;28;20075;-67
2022/09/05 01:47:15;;;;;;;4.57;3.00;;;;;;;;;;5061472;28;20036;-67
2022/09/05 01:50:07;;;;;;;5.43;3.30;;;;;;;;;;5061227;28;20080;-67
2022/09/05 01:52:45;;;;;;;3.78;3.40;;;;;;;;;;5062391;28;20040;-68
2022/09/05 01:55:38;;;;;;;4.25;2.97;;;;;;;;;;5061345;28;20461;-67
2022/09/05 01:58:30;;;;;;;5.70;3.10;;;;;;;;;;5058864;28;20066;-68
2022/09/05 02:01:01;;;;;;;3.78;2.67;;;;;;;;;;5062032;28;20135;-67
2022/09/05 02:03:47;;;;;;;10.68;3.20;;;;;;;;;;5061521;28;20040;-68
2022/09/05 02:06:24;;;;;;;8.48;3.10;;;;;;;;;;5060887;28;20063;-67
2022/09/05 02:09:53;;;;;;;4.45;2.53;;;;;;;;;;5061526;28;20477;-67
2022/09/05 02:12:38;;;;;;;6.03;2.90;;;;;;;;;;5005759;28;20053;-67
2022/09/05 02:15:16;;;;;;;11.68;3.17;;;;;;;;;;5019446;28;20111;-67
2022/09/05 02:17:41;;;;;;;4.22;2.90;;;;;;;;;;5053848;28;20125;-68
2022/09/05 02:20:21;;;;;;;3.90;2.88;;;;;;;;;;5061368;28;20048;-68
2022/09/05 02:23:26;;;;;;;3.03;2.83;;;;;;;;;;5061895;28;20568;-68
2022/09/05 02:26:04;;;;;;;3.15;2.80;;;;;;;;;;5060757;28;20501;-68
2022/09/05 02:28:48;;;;;;;4.05;2.88;;;;;;;;;;5061244;28;20063;-67
2022/09/05 02:31:35;;;;;;;4.90;2.78;;;;;;;;;;5059489;28;20052;-68
2022/09/05 02:34:10;;;;;;;7.57;3.35;;;;;;;;;;5047992;28;20048;-67
2022/09/05 02:36:45;;;;;;;3.45;3.05;;;;;;;;;;5061105;28;20147;-68
2022/09/05 02:39:33;;;;;;;6.20;2.80;;;;;;;;;;5060454;28;20047;-67
2022/09/05 02:42:04;;;;;;;6.55;3.05;;;;;;;;;;5071427;28;20056;-67
2022/09/05 02:44:44;;;;;;;3.58;2.85;;;;;;;;;;5061239;28;20070;-66
2022/09/05 02:47:25;;;;;;;4.40;2.95;;;;;;;;;;5061427;28;20822;-67
2022/09/05 02:50:21;;;;;;;3.33;3.03;;;;;;;;;;5060785;28;20073;-68
2022/09/05 02:52:48;;;;;;;6.30;2.60;;;;;;;;;;5028666;28;20056;-68
2022/09/05 02:55:32;;;;;;;4.43;2.97;;;;;;;;;;5060589;28;20102;-68
2022/09/05 02:58:23;;;;;;;9.45;3.30;;;;;;;;;;5042289;28;20070;-68
2022/09/05 03:01:27;;;;;;;9.25;3.05;;;;;;;;;;5059616;28;20082;-68
2022/09/05 03:04:13;;;;;;;5.43;3.30;;;;;;;;;;5060738;28;20044;-68
2022/09/05 03:06:41;;;;;;;4.78;3.15;;;;;;;;;;5060394;28;20504;-68
2022/09/05 03:09:28;;;;;;;3.85;3.35;;;;;;;;;;5060858;28;20540;-68
2022/09/05 03:12:22;;;;;;;5.28;3.30;;;;;;;;;;5058295;28;20147;-68
2022/09/05 03:15:36;;;;;;;7.75;3.50;;;;;;;;;;5060161;28;20048;-68
2022/09/05 03:18:32;;;;;;;5.07;3.70;;;;;;;;;;5058441;28;20105;-68
2022/09/05 03:21:46;;;;;;;5.95;3.63;;;;;;;;;;5057659;28;20045;-68
2022/09/05 03:24:30;;;;;;;7.30;3.78;;;;;;;;;;5057189;28;20045;-67
2022/09/05 03:27:31;;;;;;;8.48;3.78;;;;;;;;;;5060403;28;20067;-67
2022/09/05 03:30:14;;;;;;;4.28;3.40;;;;;;;;;;5056244;28;20496;-67
2022/09/05 03:32:51;;;;;;;4.65;3.78;;;;;;;;;;5060003;28;20048;-67
2022/09/05 03:35:32;;;;;;;4.05;3.50;;;;;;;;;;5059342;28;20117;-67
2022/09/05 03:38:27;;;;;;;6.28;4.30;;;;;;;;;;5042244;28;20086;-67
2022/09/05 03:41:44;;;;;;;4.60;4.00;;;;;;;;;;5060452;28;20049;-67
2022/09/05 03:44:27;;;;;;;9.05;4.30;;;;;;;;;;5034620;28;20061;-67
2022/09/05 03:47:01;;;;;;;4.82;4.30;;;;;;;;;;5059040;28;20102;-67
2022/09/05 03:50:07;;;;;;;4.97;3.85;;;;;;;;;;5059379;28;20117;-67
2022/09/05 03:52:52;;;;;;;9.45;4.18;;;;;;;;;;5053115;28;20036;-67
2022/09/05 03:55:26;;;;;;;5.03;4.00;;;;;;;;;;5060910;28;20036;-67
2022/09/05 03:58:11;;;;;;;5.38;4.07;;;;;;;;;;5059949;28;20052;-67
2022/09/05 04:00:36;;;;;;;7.30;4.30;;;;;;;;;;5060345;28;20147;-67
2022/09/05 04:03:10;;;;;;;5.45;4.20;;;;;;;;;;5060505;28;20175;-67
2022/09/05 04:05:40;;;;;;;5.55;4.68;;;;;;;;;;5059489;28;20044;-67
2022/09/05 04:08:49;;;;;;;7.68;3.90;;;;;;;;;;5059471;28;20060;-67
2022/09/05 04:11:37;;;;;;;4.93;4.40;;;;;;;;;;5059201;28;20044;-68
2022/09/05 04:14:22;;;;;;;5.05;4.25;;;;;;;;;;5057380;28;20080;-68
2022/09/05 04:16:49;;;;;;;8.82;4.57;;;;;;;;;;5060267;28;20044;-68
2022/09/05 04:19:33;;;;;;;5.10;4.60;;;;;;;;;;5059418;28;20971;-68
2022/09/05 04:22:19;;;;;;;6.57;4.97;;;;;;;;;;5041355;28;20048;-68
2022/09/05 04:24:56;;;;;;;5.32;4.13;;;;;;;;;;5059545;28;20194;-68
2022/09/05 04:27:45;;;;;;;6.63;4.20;;;;;;;;;;5060190;28;20070;-68
2022/09/05 04:30:44;;;;;;;5.03;3.35;;;;;;;;;;5022044;28;20049;-67
2022/09/05 04:33:19;;;;;;;4.63;3.53;;;;;;;;;;5049952;28;20136;-67
2022/09/05 04:36:10;;;;;;;4.03;3.17;;;;;;;;;;5039106;28;20103;-67
2022/09/05 04:38:38;;;;;;;3.80;2.97;;;;;;;;;;5025347;28;20055;-68
2022/09/05 04:41:17;;;;;;;3.45;3.15;;;;;;;;;;5038935;28;20047;-68
2022/09/05 04:43:54;;;;;;;6.90;3.17;;;;;;;;;;5039333;28;20033;-68
2022/09/05 04:46:25;;;;;;;7.00;2.80;;;;;;;;;;5039980;28;20394;-68
2022/09/05 04:49:08;;;;;;;3.35;2.90;;;;;;;;;;5039963;28;20045;-68
2022/09/05 04:51:36;;;;;;;2.92;2.70;;;;;;;;;;5038416;28;20084;-68
2022/09/05 04:54:23;;;;;;;8.07;2.88;;;;;;;;;;5039725;28;20061;-68
2022/09/05 04:57:07;;;;;;;4.03;2.80;;;;;;;;;;5042907;28;20044;-68
2022/09/05 05:00:13;;;;;;;2.85;2.65;;;;;;;;;;5042668;28;20051;-68
2022/09/05 05:02:46;;;;;;;3.03;2.72;;;;;;;;;;5042115;28;20769;-68
2022/09/05 05:05:38;;;;;;;5.35;3.10;;;;;;;;;;5042775;28;20049;-68
2022/09/05 05:08:15;;;;;;;3.15;2.85;;;;;;;;;;5060787;28;20103;-68
2022/09/05 05:10:45;;;;;;;3.60;3.10;;;;;;;;;;5063383;28;20139;-68
2022/09/05 05:13:39;;;;;;;4.78;3.00;;;;;;;;;;5062491;28;20064;-68
2022/09/05 05:16:20;;;;;;;3.88;2.97;;;;;;;;;;5060002;28;20413;-68
2022/09/05 05:18:50;;;;;;;3.13;2.83;;;;;;;;;;5061013;28;20036;-68
2022/09/05 05:21:24;;;;;;;4.53;3.05;;;;;;;;;;5060455;28;20105;-68
2022/09/05 05:24:20;;;;;;;6.40;2.70;;;;;;;;;;5061194;28;20057;-68
2022/09/05 05:26:46;;;;;;;3.47;2.60;;;;;;;;;;5059597;28;20111;-68
2022/09/05 05:29:14;;;;;;;3.58;2.72;;;;;;;;;;5061826;28;20536;-68
2022/09/05 05:31:48;;;;;;;2.92;2.25;;;;;;;;;;5059101;28;20044;-68
2022/09/05 05:34:22;;;;;;;5.00;2.50;;;;;;;;;;5060821;28;20044;-68
2022/09/05 05:36:56;;;;;;;3.58;2.60;;;;;;;;;;5061197;28;20044;-68
2022/09/05 05:39:25;;;;;;;7.07;2.63;;;;;;;;;;5059489;28;20059;-68
2022/09/05 05:41:54;;;;;;;2.92;2.08;;;;;;;;;;5060939;28;20048;-68
2022/09/05 05:44:32;;;;;;;4.47;1.92;;;;;;;;;;5061365;28;20044;-68
2022/09/05 05:47:19;;;;;;;2.28;2.08;;;;;;;;;;5059492;28;20037;-68
2022/09/05 05:49:58;;;;;;;5.13;2.25;;;;;;;;;;5059992;28;20098;-68
2022/09/05 05:52:57;;;;;;;2.00;1.90;;;;;;;;;;5060912;28;20517;-68
2022/09/05 05:55:37;;;;;;;4.20;2.60;;;;;;;;;;5060638;28;20044;-68
2022/09/05 05:58:24;;;;;;;3.17;2.17;;;;;;;;;;5056866;28;20052;-68
2022/09/05 06:01:05;;;;;;;4.70;1.95;;;;;;;;;;5060734;28;20153;-68
2022/09/05 06:04:24;;;;;;;3.08;2.10;;;;;;;;;;5060374;28;20047;-68
2022/09/05 06:07:04;;;;;;;3.17;2.45;;;;;;;;;;5017680;28;20095;-68
2022/09/05 06:09:54;;;;;;;2.58;2.00;;;;;;;;;;5017270;28;20085;-67
2022/09/05 06:12:44;;;;;;;2.95;2.05;;;;;;;;;;5053500;28;20268;-68
2022/09/05 06:15:39;;;;;;;2.50;2.30;;;;;;;;;;5060870;28;20049;-68
2022/09/05 06:18:08;;;;;;;2.30;2.10;;;;;;;;;;5056781;28;20052;-68
2022/09/05 06:21:08;;;;;;;5.97;2.30;;;;;;;;;;5059715;28;20037;-68
2022/09/05 06:24:03;;;;;;;7.63;2.45;;;;;;;;;;5060651;28;20111;-68
2022/09/05 06:26:50;;;;;;;3.35;2.30;;;;;;;;;;5059512;28;20040;-68
2022/09/05 06:29:43;;;;;;;3.45;1.70;;;;;;;;;;5062001;28;20055;-66
2022/09/05 06:32:57;;;;;;;3.85;1.90;;;;;;;;;;5058638;28;20139;-66
2022/09/05 06:35:38;;;;;;;2.75;2.13;;;;;;;;;;5062594;28;20083;-66
2022/09/05 06:38:15;;;;;;;4.13;2.00;;;;;;;;;;5058872;28;20118;-67
2022/09/05 06:41:01;;;;;;;3.78;2.10;;;;;;;;;;5060597;28;20906;-68
2022/09/05 06:43:32;;;;;;;3.20;2.20;;;;;;;;;;5058845;28;20491;-69
2022/09/05 06:46:03;;;;;;;2.20;2.00;;;;;;;;;;5059987;28;20059;-68
2022/09/05 06:48:58;;;;;;;4.20;2.50;;;;;;;;;;5058224;28;20075;-68
2022/09/05 06:51:40;;;;;;;2.50;2.30;;;;;;;;;;5056845;28;20041;-68
2022/09/05 06:54:08;;;;;;;3.05;2.33;;;;;;;;;;5056629;28;20047;-68
2022/09/05 06:56:46;;;;;;;2.50;2.30;;;;;;;;;;5057622;28;20065;-68
2022/09/05 06:59:44;;;;;;;4.40;2.08;;;;;;;;;;5056351;28;20060;-68
2022/09/05 07:02:33;;;;;;;4.95;2.53;;;;;;;;;;5055787;28;20052;-68
2022/09/05 07:05:13;;;;;;;2.25;2.05;;;;;;;;;;5058796;28;20044;-68
2022/09/05 07:07:47;;;;;;;4.28;2.17;;;;;;;;;;5058455;28;20108;-68
2022/09/05 07:10:33;;;;;;;4.57;2.22;;;;;;;;;;5048125;28;20512;-68
2022/09/05 07:13:28;;;;;;;5.72;2.30;;;;;;;;;;5056352;28;20037;-68
2022/09/05 07:15:59;;;;;;;4.00;2.08;;;;;;;;;;5056177;28;20123;-68
2022/09/05 07:18:44;;;;;;;3.83;1.98;;;;;;;;;;5057802;28;20528;-68
2022/09/05 07:21:31;;;;;;;2.70;2.10;;;;;;;;;;5059507;28;21125;-68
2022/09/05 07:24:05;;;;;;;3.53;2.05;;;;;;;;;;5056075;28;20048;-68
2022/09/05 07:26:34;;;;;;;3.17;2.35;;;;;;;;;;5057170;28;20055;-68
2022/09/05 07:29:04;;;;;;;3.03;2.10;;;;;;;;;;5057792;28;20048;-68
2022/09/05 07:31:36;;;;;;;2.50;2.22;;;;;;;;;;5058065;28;20761;-68
2022/09/05 07:34:15;;;;;;;2.45;2.08;;;;;;;;;;5058763;28;20053;-68
2022/09/05 07:36:45;;;;;;;2.95;2.10;;;;;;;;;;5057606;28;20051;-69
2022/09/05 07:39:16;;;;;;;3.85;2.00;;;;;;;;;;5058555;28;20052;-68
2022/09/05 07:41:49;;;;;;;3.33;2.13;;;;;;;;;;5058282;28;20036;-68
2022/09/05 07:44:23;;;;;;;2.20;2.05;;;;;;;;;;5054699;28;20048;-68
2022/09/05 07:47:00;;;;;;;8.52;2.10;;;;;;;;;;5054770;28;20468;-69
2022/09/05 07:49:27;;;;;;;2.55;2.15;;;;;;;;;;5058028;28;20080;-69
2022/09/05 07:52:03;;;;;;;2.97;2.00;;;;;;;;;;5057460;28;20048;-67
2022/09/05 07:54:35;;;;;;;2.72;2.00;;;;;;;;;;5057174;28;20047;-68
2022/09/05 07:57:04;;;;;;;;;;;;;;;;;;5057678;28;20040;-69
2022/09/05 07:59:36;;;;;;;5.45;2.08;;;;;;;;;;5056883;28;19920;-70
2022/09/05 08:02:03;;;;;;;2.20;1.95;;;;;;;;;;5058101;28;20040;-67
2022/09/05 08:04:38;;;;;;;2.70;2.00;;;;;;;;;;5057457;28;20909;-67
2022/09/05 08:07:36;;;;;;;3.00;1.88;;;;;;;;;;5057777;28;20056;-68
2022/09/05 08:10:16;;;;;;;3.10;2.13;;;;;;;;;;5055099;28;20068;-67
2022/09/05 08:12:57;;;;;;;2.80;2.03;;;;;;;;;;5058432;28;20389;-68
2022/09/05 08:15:26;;;;;;;3.00;2.13;;;;;;;;;;5057332;28;20404;-68
2022/09/05 08:18:16;;;;;;;2.45;2.00;;;;;;;;;;5057544;28;20063;-67
2022/09/05 08:20:48;;;;;;;3.78;2.30;;;;;;;;;;5054288;28;20132;-67
2022/09/05 08:23:35;;;;;;;3.88;1.85;;;;;;;;;;5056456;28;21052;-68
2022/09/05 08:26:11;;;;;;;3.30;2.10;;;;;;;;;;5053852;28;20048;-68
2022/09/05 08:28:56;;;;;;;2.10;2.00;;;;;;;;;;5058582;28;20139;-67
2022/09/05 08:31:36;;;;;;;2.47;1.90;;;;;;;;;;5060817;28;20084;-67
2022/09/05 08:34:10;;;;;;;4.88;2.13;;;;;;;;;;5058560;28;20129;-67
2022/09/05 08:36:47;;;;;;;3.17;2.08;;;;;;;;;;5051124;28;20057;-66
2022/09/05 08:39:22;;;;;;;3.95;2.28;;;;;;;;;;5043125;28;20552;-67
2022/09/05 08:42:03;;;;;;;6.80;2.08;;;;;;;;;;5040411;28;20573;-67
2022/09/05 08:45:25;;;;;;;7.50;2.20;;;;;;;;;;5005117;28;20067;-67
2022/09/05 08:48:12;;;;;;;2.08;1.63;;;;;;;;;;4958999;28;20546;-68
2022/09/05 08:51:21;;;;;;;2.03;1.88;;;;;;;;;;5044595;28;20576;-67
2022/09/05 08:54:02;;;;;;;3.10;2.00;;;;;;;;;;5034568;28;20053;-69
2022/09/05 08:56:36;;;;;;;1.77;1.67;;;;;;;;;;5038361;28;20102;-69
2022/09/05 08:59:35;;;;;;;2.67;1.83;;;;;;;;;;5037988;28;20505;-69
2022/09/05 09:02:12;;;;;;;2.28;2.03;;;;;;;;;;5056605;28;21056;-69
2022/09/05 09:04:46;;;;;;;2.30;2.10;;;;;;;;;;5028469;28;20037;-69
2022/09/05 09:07:19;;;;;;;2.58;2.10;;;;;;;;;;5026098;28;20049;-69
2022/09/05 09:10:08;;;;;;;4.40;2.00;;;;;;;;;;5033337;28;20555;-69
2022/09/05 09:12:49;;;;;;;2.40;1.80;;;;;;;;;;5034181;28;20049;-68
2022/09/05 09:15:23;;;;;;;4.82;2.10;;;;;;;;;;5032057;28;20076;-69
2022/09/05 09:17:51;;;;;;;2.95;2.20;;;;;;;;;;5041335;28;20077;-68
2022/09/05 09:20:17;;;;;;;4.28;2.03;;;;;;;;;;5040683;28;20044;-69
2022/09/05 09:23:00;;;;;;;2.17;2.00;;;;;;;;;;5041778;28;20040;-69
2022/09/05 09:25:49;;;;;;;3.08;1.90;;;;;;;;;;5039810;28;20040;-69
2022/09/05 09:28:42;;;;;;;2.83;2.13;;;;;;;;;;4996282;28;20068;-68
2022/09/05 09:31:19;;;;;;;2.33;2.13;;;;;;;;;;5037152;28;20064;-70
2022/09/05 09:34:07;;;;;;;3.60;1.75;;;;;;;;;;5039968;28;20111;-67
2022/09/05 09:37:07;;;;;;;2.28;1.70;;;;;;;;;;5039638;28;20052;-68
2022/09/05 09:40:10;;;;;;;3.90;1.55;;;;;;;;;;5038763;28;20037;-68
2022/09/05 09:42:49;;;;;;;5.65;1.80;;;;;;;;;;5045404;28;20076;-68
2022/09/05 09:45:52;;;;;;;2.45;1.67;;;;;;;;;;5035194;28;20148;-68
2022/09/05 09:48:49;;;;;;;3.72;1.75;;;;;;;;;;5057755;28;20512;-68
2022/09/05 09:51:28;;;;;;;1.65;1.55;;;;;;;;;;5059876;28;20499;-68
2022/09/05 09:54:01;;;;;;;1.60;1.50;;;;;;;;;;5060399;28;20056;-67
2022/09/05 09:56:54;;;;;;;3.25;1.45;;;;;;;;;;5059603;28;20037;-68
2022/09/05 09:59:26;;;;;;;2.15;1.63;;;;;;;;;;5041090;28;20628;-68
2022/09/05 10:02:00;;;;;;;2.08;1.50;;;;;;;;;;5057617;28;20880;-68
2022/09/05 10:04:51;;;;;;;1.88;1.58;;;;;;;;;;5059602;28;20059;-67
2022/09/05 10:07:49;;;;;;;2.65;1.63;;;;;;;;;;5059261;28;20041;-67
2022/09/05 10:10:38;;;;;;;1.77;1.30;;;;;;;;;;5025111;28;20098;-68
2022/09/05 10:13:21;;;;;;;2.53;1.40;;;;;;;;;;5059495;28;20048;-67
2022/09/05 10:16:18;;;;;;;1.48;1.38;;;;;;;;;;5059595;28;20205;-67
2022/09/05 10:18:50;;;;;;;4.25;1.63;;;;;;;;;;5060127;28;20715;-68
2022/09/05 10:21:46;;;;;;;2.42;1.70;;;;;;;;;;5059535;28;20118;-69
2022/09/05 10:24:15;;;;;;;2.08;1.30;;;;;;;;;;5041380;28;20137;-68
2022/09/05 10:27:01;;;;;;;1.40;1.30;;;;;;;;;;5042423;28;20509;-68
2022/09/05 10:29:46;;;;;;;2.70;1.45;;;;;;;;;;5040923;28;20510;-73
2022/09/05 10:32:49;;;;;;;2.25;1.60;;;;;;;;;;5060430;28;20043;-68
2022/09/05 10:35:22;;;;;;;1.55;1.45;;;;;;;;;;5059082;28;20127;-68
2022/09/05 10:37:54;;;;;;;3.25;1.48;;;;;;;;;;5058101;28;20056;-68
2022/09/05 10:40:24;;;;;;;1.60;1.50;;;;;;;;;;5059522;28;20044;-68
2022/09/05 10:42:53;;;;;;;2.45;1.60;;;;;;;;;;5058265;28;20147;-68
2022/09/05 10:45:48;;;;;;;2.70;1.70;;;;;;;;;;5058834;28;20101;-68
2022/09/05 10:48:25;;;;;;;3.70;1.55;;;;;;;;;;5033934;28;20062;-68
2022/09/05 10:51:07;;;;;;;1.90;1.52;;;;;;;;;;5048304;28;20412;-69
2022/09/05 10:53:54;;;;;;;1.55;1.45;;;;;;;;;;5038731;28;20071;-68
2022/09/05 10:56:29;;;;;;;1.88;1.52;;;;;;;;;;5046910;28;20938;-67
2022/09/05 10:59:00;;;;;;;2.80;1.40;;;;;;;;;;5039215;28;20194;-68
2022/09/05 11:01:38;;;;;;;2.55;1.45;;;;;;;;;;5032444;28;20045;-69
2022/09/05 11:04:22;;;;;;;2.10;1.50;;;;;;;;;;5038152;28;20053;-69
2022/09/05 11:07:03;;;;;;;1.45;1.30;;;;;;;;;;5048117;28;20052;-68
2022/09/05 11:09:59;;;;;;;1.50;1.40;;;;;;;;;;5040664;28;20045;-68
2022/09/05 11:12:40;;;;;;;1.60;1.30;;;;;;;;;;5035458;28;20110;-68
2022/09/05 11:15:17;;;;;;;1.35;1.25;;;;;;;;;;5026716;28;21032;-68
2022/09/05 11:18:02;;;;;;;1.38;1.23;;;;;;;;;;5024593;28;20102;-68
2022/09/05 11:20:33;;;;;;;5.10;1.40;;;;;;;;;;5036886;28;20045;-68
2022/09/05 11:23:13;;;;;;;1.83;1.48;;;;;;;;;;5035621;28;20055;-68
2022/09/05 11:25:39;;;;;;;1.50;1.40;;;;;;;;;;5029139;28;20155;-68
2022/09/05 11:28:17;;;;;;;2.33;1.20;;;;;;;;;;5031668;28;20118;-68
2022/09/05 11:30:52;;;;;;;1.80;1.42;;;;;;;;;;5036261;28;20045;-68
2022/09/05 11:33:45;;;;;;;7.50;1.50;;;;;;;;;;5029617;28;20036;-68
2022/09/05 11:36:23;;;;;;;1.40;1.30;;;;;;;;;;5032959;28;20080;-68
2022/09/05 11:39:12;;;;;;;4.50;1.45;;;;;;;;;;5046427;28;20055;-68
2022/09/05 11:42:12;;;;;;;1.80;1.70;;;;;;;;;;5038112;28;20052;-68
2022/09/05 11:45:03;;;;;;;1.55;1.40;;;;;;;;;;5038918;28;20052;-68
2022/09/05 11:47:37;;;;;;;2.35;1.30;;;;;;;;;;5036175;28;20052;-68
2022/09/05 11:50:09;;;;;;;2.10;1.33;;;;;;;;;;5037957;28;20126;-68
2022/09/05 11:52:52;;;;;;;3.00;1.40;;;;;;;;;;5038683;28;20039;-68
2022/09/05 11:55:35;;;;;;;2.45;1.40;;;;;;;;;;5025309;28;20124;-68
2022/09/05 11:58:33;;;;;;;2.88;1.58;;;;;;;;;;5056314;28;20214;-69
2022/09/05 12:01:08;;;;;;;1.58;1.48;;;;;;;;;;5058359;28;20053;-68
2022/09/05 12:03:58;;;;;;;1.67;1.58;;;;;;;;;;5057259;28;20044;-69
2022/09/05 12:06:55;;;;;;;1.90;1.38;;;;;;;;;;5062141;28;20056;-68
2022/09/05 12:09:23;;;;;;;2.35;1.25;;;;;;;;;;5061276;28;20060;-68
2022/09/05 12:12:21;;;;;;;1.45;1.35;;;;;;;;;;5061790;28;20153;-68
2022/09/05 12:15:22;;;;;;;2.05;1.33;;;;;;;;;;5062645;28;20062;-69
2022/09/05 12:17:55;;;;;;;2.30;1.70;;;;;;;;;;5060812;28;20048;-69
2022/09/05 12:20:42;;;;;;;1.67;1.30;;;;;;;;;;5061733;28;20086;-69
2022/09/05 12:23:44;;;;;;;1.50;1.10;;;;;;;;;;5062714;28;20040;-70
2022/09/05 12:26:14;;;;;;;2.88;1.30;;;;;;;;;;5044391;28;20144;-68
2022/09/05 12:28:45;;;;;;;2.42;1.30;;;;;;;;;;5061800;28;20048;-69
2022/09/05 12:31:16;;;;;;;2.10;1.42;;;;;;;;;;5060924;28;20083;-69
2022/09/05 12:33:50;;;;;;;2.65;1.52;;;;;;;;;;5056194;28;20733;-69
2022/09/05 12:36:35;;;;;;;1.98;1.50;;;;;;;;;;5060206;28;20102;-69
2022/09/05 12:39:34;;;;;;;1.50;1.35;;;;;;;;;;5061735;28;20050;-68
2022/09/05 12:42:30;;;;;;;2.47;1.60;;;;;;;;;;5060096;28;20040;-69
2022/09/05 12:45:19;;;;;;;1.90;1.60;;;;;;;;;;5062411;28;20477;-69
2022/09/05 12:47:51;;;;;;;4.85;1.60;;;;;;;;;;5061826;28;20111;-68
2022/09/05 12:50:19;;;;;;;4.00;1.75;;;;;;;;;;5062663;28;20211;-68
2022/09/05 12:52:50;;;;;;;1.67;1.52;;;;;;;;;;5073521;28;20047;-70
2022/09/05 12:55:16;;;;;;;;;;;;;;;;;;5076592;28;20044;-70
2022/09/05 12:57:42;;;;;;;8.65;1.73;;;;;;;;;;5060911;28;19926;-69
2022/09/05 13:00:12;;;;;;;2.55;1.52;;;;;;;;;;5057635;28;20049;-68
2022/09/05 13:02:44;;;;;;;1.70;1.60;;;;;;;;;;5061355;28;20036;-68
2022/09/05 13:05:14;;;;;;;1.58;1.48;;;;;;;;;;5060292;28;20048;-68
2022/09/05 13:07:54;;;;;;;2.35;1.77;;;;;;;;;;5061953;28;20075;-68
2022/09/05 13:10:32;;;;;;;2.30;1.33;;;;;;;;;;5062613;28;20135;-68
2022/09/05 13:13:05;;;;;;;4.93;1.50;;;;;;;;;;5062669;28;20472;-68
2022/09/05 13:15:35;;;;;;;1.50;1.40;;;;;;;;;;5060967;28;20048;-68
2022/09/05 13:18:23;;;;;;;2.00;1.40;;;;;;;;;;5061778;28;20048;-67
2022/09/05 13:20:54;;;;;;;1.35;1.30;;;;;;;;;;5062362;28;20040;-68
2022/09/05 13:23:24;;;;;;;1.58;1.48;;;;;;;;;;5061223;28;21049;-68
2022/09/05 13:26:00;;;;;;;1.95;1.40;;;;;;;;;;5061587;28;20056;-68
2022/09/05 13:28:47;;;;;;;2.42;1.20;;;;;;;;;;5062112;28;20037;-67
2022/09/05 13:31:14;;;;;;;1.17;1.10;;;;;;;;;;5061839;28;20093;-69
2022/09/05 13:33:48;;;;;;;2.95;1.63;;;;;;;;;;5061581;28;20583;-68
2022/09/05 13:36:20;;;;;;;2.80;1.50;;;;;;;;;;5057007;28;20048;-69
2022/09/05 13:39:04;;;;;;;2.03;1.50;;;;;;;;;;5058533;28;20051;-68
2022/09/05 13:41:41;;;;;;;1.65;1.55;;;;;;;;;;5059211;28;20048;-69
2022/09/05 13:44:21;;;;;;;1.70;1.55;;;;;;;;;;5060834;28;20414;-70
2022/09/05 13:46:47;;;;;;;5.88;1.60;;;;;;;;;;5060307;28;20057;-69
2022/09/05 13:49:22;;;;;;;1.88;1.50;;;;;;;;;;5059566;28;20119;-68
2022/09/05 13:52:27;;;;;;;2.40;1.42;;;;;;;;;;5059508;28;20060;-68
2022/09/05 13:55:08;;;;;;;3.00;1.55;;;;;;;;;;5059510;28;20052;-67
2022/09/05 13:57:44;;;;;;;1.83;1.50;;;;;;;;;;5059268;28;20033;-68
2022/09/05 14:00:12;;;;;;;2.55;1.35;;;;;;;;;;5061410;28;20044;-68
2022/09/05 14:03:18;;;;;;;4.20;1.52;;;;;;;;;;5060459;28;20146;-67
2022/09/05 14:06:34;;;;;;;1.65;1.55;;;;;;;;;;5093057;28;20104;-68
2022/09/05 14:09:10;;;;;;;3.45;1.52;;;;;;;;;;5047511;28;20052;-67
2022/09/05 14:11:44;;;;;;;4.18;1.70;;;;;;;;;;5058894;28;20067;-66
2022/09/05 14:14:38;;;;;;;2.05;1.45;;;;;;;;;;5059982;28;20515;-67
2022/09/05 14:17:05;;;;;;;2.75;1.60;;;;;;;;;;5058729;28;20056;-70
2022/09/05 14:22:39;;;;;;;2.00;1.63;;;;;;;;;;5058640;28;20044;-70
2022/09/05 14:25:20;;;;;;;1.70;1.58;;;;;;;;;;5059956;28;20048;-69
2022/09/05 14:27:48;;;;;;;1.40;1.30;;;;;;;;;;5059023;28;20500;-68
2022/09/05 14:30:38;;;;;;;1.40;1.30;;;;;;;;;;5058925;28;20063;-69
2022/09/05 14:33:23;;;;;;;1.48;1.30;;;;;;;;;;5059691;28;20124;-70
2022/09/05 14:36:03;;;;;;;1.55;1.45;;;;;;;;;;5059144;28;20040;-69
2022/09/05 14:38:37;;;;;;;4.22;1.38;;;;;;;;;;5059441;28;20049;-72
2022/09/05 14:41:41;;;;;;;1.50;1.40;;;;;;;;;;5059545;28;20072;-70
2022/09/05 14:44:23;;;;;;;2.08;1.58;;;;;;;;;;5056373;28;20056;-69
2022/09/05 14:47:25;;;;;;;2.05;1.30;;;;;;;;;;5058814;28;20040;-69
2022/09/05 14:50:35;;;;;;;1.40;1.30;;;;;;;;;;5059652;28;20048;-68
2022/09/05 14:53:12;;;;;;;1.92;1.40;;;;;;;;;;5059364;28;20412;-69
2022/09/05 14:56:01;;;;;;;3.30;1.33;;;;;;;;;;5058403;28;20151;-69
2022/09/05 14:58:31;;;;;;;2.47;1.42;;;;;;;;;;5058923;28;20125;-69
2022/09/05 15:01:03;;;;;;;1.30;1.20;;;;;;;;;;5059695;28;20476;-69
2022/09/05 15:03:38;;;;;;;3.67;1.40;;;;;;;;;;5060373;28;20099;-70
2022/09/05 15:06:19;;;;;;;3.15;1.10;;;;;;;;;;5055985;28;20055;-70
2022/09/05 15:08:47;;;;;;;3.20;1.42;;;;;;;;;;5060072;28;20528;-69
2022/09/05 15:11:20;;;;;;;3.67;1.70;;;;;;;;;;5059477;28;20044;-69
2022/09/05 15:14:02;;;;;;;2.05;1.38;;;;;;;;;;5059392;28;20052;-70
2022/09/05 15:16:30;;;;;;;3.53;1.25;;;;;;;;;;5058809;28;20060;-70
2022/09/05 15:18:57;;;;;;;1.45;1.30;;;;;;;;;;5059304;28;20115;-70
2022/09/05 15:21:31;;;;;;;1.98;1.60;;;;;;;;;;5060352;28;20106;-69
2022/09/05 15:24:01;;;;;;;1.50;1.40;;;;;;;;;;5060403;28;20048;-70
2022/09/05 15:26:29;;;;;;;3.30;1.48;;;;;;;;;;5060231;28;20044;-70
2022/09/05 15:29:10;;;;;;;3.92;1.58;;;;;;;;;;5059962;28;20044;-69
2022/09/05 15:31:36;;;;;;;1.92;1.50;;;;;;;;;;5059718;28;20276;-70
2022/09/05 15:34:30;;;;;;;2.08;1.20;;;;;;;;;;5060242;28;20593;-70
2022/09/05 15:36:57;;;;;;;1.40;1.30;;;;;;;;;;5059838;28;20063;-69
2022/09/05 15:39:25;;;;;;;3.15;1.40;;;;;;;;;;5058859;28;20090;-69
2022/09/05 15:41:54;;;;;;;3.63;1.50;;;;;;;;;;5059871;28;20067;-69
2022/09/05 15:44:28;;;;;;;3.22;1.38;;;;;;;;;;5060125;28;20522;-69
2022/09/05 15:47:02;;;;;;;4.50;1.73;;;;;;;;;;5059579;28;20044;-70
2022/09/05 15:49:37;;;;;;;4.63;1.33;;;;;;;;;;5058312;28;20048;-69
2022/09/05 15:52:26;;;;;;;4.30;1.40;;;;;;;;;;5059055;28;20413;-70
2022/09/05 15:54:56;;;;;;;1.25;1.15;;;;;;;;;;5060047;28;20072;-70
2022/09/05 15:57:25;;;;;;;1.67;1.58;;;;;;;;;;5060030;28;20048;-69
2022/09/05 15:59:58;;;;;;;1.40;1.30;;;;;;;;;;5059753;28;20143;-69
2022/09/05 16:02:27;;;;;;;2.47;1.50;;;;;;;;;;5059167;28;20048;-69
2022/09/05 16:05:15;;;;;;;2.13;1.48;;;;;;;;;;5060682;28;20040;-70
2022/09/05 16:07:51;;;;;;;1.50;1.40;;;;;;;;;;5059756;28;20094;-71
2022/09/05 16:10:20;;;;;;;1.40;1.30;;;;;;;;;;5059897;28;20056;-70
2022/09/05 16:12:49;;;;;;;2.33;1.23;;;;;;;;;;5059031;28;20404;-70
2022/09/05 16:15:19;;;;;;;1.73;1.35;;;;;;;;;;5059474;28;20041;-69